createdAt,value
2019-01-24T00:01:59.116Z,37.45
2019-01-24T00:06:56.632Z,37.36
2019-01-24T00:09:23.740Z,37.60
2019-01-24T00:11:49.815Z,37.53
2019-01-24T00:14:15.839Z,37.29
2019-01-24T00:16:42.317Z,37.43
2019-01-24T00:19:08.322Z,37.36
2019-01-24T00:21:36.482Z,37.40
2019-01-24T00:24:03.060Z,37.36
2019-01-24T00:26:29.056Z,37.44
2019-01-24T00:29:03.574Z,37.35
2019-01-24T00:31:30.792Z,37.10
2019-01-24T00:33:58.806Z,37.31
2019-01-24T00:36:24.847Z,37.36
2019-01-24T00:41:22.514Z,37.39
2019-01-24T00:43:48.529Z,37.54
2019-01-24T00:46:14.651Z,37.38
2019-01-24T00:48:40.695Z,37.55
2019-01-24T00:51:06.687Z,37.62
2019-01-24T00:53:32.685Z,37.64
2019-01-24T00:55:58.720Z,37.55
2019-01-24T00:58:24.791Z,37.70
2019-01-24T01:00:50.830Z,37.55
2019-01-24T01:03:18.849Z,37.69
2019-01-24T01:05:45.349Z,37.73
2019-01-24T01:08:11.328Z,37.71
2019-01-24T01:10:37.781Z,37.82
2019-01-24T01:13:03.803Z,37.71
2019-01-24T01:15:32.148Z,37.72
2019-01-24T01:17:59.260Z,37.69
2019-01-24T01:20:25.302Z,37.73
2019-01-24T01:22:51.323Z,37.69
2019-01-24T01:25:17.317Z,37.76
2019-01-24T01:27:43.340Z,37.98
2019-01-24T01:30:09.407Z,37.59
2019-01-24T01:32:35.416Z,37.64
2019-01-24T01:35:01.424Z,37.78
2019-01-24T01:37:28.528Z,37.82
2019-01-24T01:39:54.538Z,37.80
2019-01-24T01:42:21.623Z,37.87
2019-01-24T01:44:48.619Z,37.65
2019-01-24T01:47:16.998Z,37.57
2019-01-24T01:49:43.051Z,37.37
2019-01-24T01:52:09.091Z,37.60
2019-01-24T01:54:35.501Z,37.47
2019-01-24T01:57:01.572Z,37.44
2019-01-24T01:59:27.797Z,37.43
2019-01-24T02:01:53.810Z,37.61
2019-01-24T02:04:19.840Z,37.60
2019-01-24T02:06:46.257Z,37.75
2019-01-24T02:09:12.295Z,37.74
2019-01-24T02:11:39.367Z,37.67
2019-01-24T02:14:05.351Z,37.56
2019-01-24T02:16:32.372Z,37.73
2019-01-24T02:21:27.570Z,37.75
2019-01-24T02:23:53.565Z,37.58
2019-01-24T02:26:19.634Z,37.81
2019-01-24T02:28:45.636Z,37.61
2019-01-24T02:33:55.445Z,37.94
2019-01-24T02:36:21.518Z,37.83
2019-01-24T02:38:48.299Z,37.87
2019-01-24T02:41:14.286Z,38.00
2019-01-24T02:43:40.290Z,38.08
2019-01-24T02:46:06.661Z,38.09
2019-01-24T02:48:32.709Z,38.07
2019-01-24T02:50:59.772Z,38.22
2019-01-24T02:53:27.032Z,38.24
2019-01-24T02:55:55.511Z,38.34
2019-01-24T02:58:21.601Z,38.16
2019-01-24T03:00:47.600Z,38.22
2019-01-24T03:03:13.601Z,38.33
2019-01-24T03:05:40.757Z,38.24
2019-01-24T03:08:06.889Z,38.07
2019-01-24T03:10:34.065Z,38.18
2019-01-24T03:13:00.055Z,38.22
2019-01-24T03:15:26.073Z,38.29
2019-01-24T03:17:52.073Z,38.22
2019-01-24T03:20:19.106Z,38.30
2019-01-24T03:22:45.665Z,38.36
2019-01-24T03:32:59.794Z,38.49
2019-01-24T03:35:27.113Z,38.52
2019-01-24T03:37:53.613Z,38.37
2019-01-24T03:40:19.694Z,38.49
2019-01-24T03:42:46.351Z,38.59
2019-01-24T03:45:14.510Z,38.59
2019-01-24T03:47:40.692Z,38.41
2019-01-24T03:50:06.669Z,38.31
2019-01-24T03:55:04.715Z,38.25
2019-01-24T03:57:30.839Z,38.14
2019-01-24T03:59:56.867Z,38.06
2019-01-24T04:02:22.844Z,38.30
2019-01-24T04:04:48.855Z,38.27
2019-01-24T04:07:16.896Z,38.15
2019-01-24T04:09:43.319Z,38.11
2019-01-24T04:12:09.910Z,38.21
2019-01-24T04:14:35.903Z,38.35
2019-01-24T04:17:02.951Z,38.22
2019-01-24T04:19:30.029Z,38.13
2019-01-24T04:21:56.445Z,38.40
2019-01-24T04:24:25.463Z,38.39
2019-01-24T04:26:51.573Z,38.35
2019-01-24T04:29:19.927Z,38.30
2019-01-24T04:31:45.937Z,38.36
2019-01-24T04:34:14.311Z,38.39
2019-01-24T04:36:40.309Z,38.28
2019-01-24T04:41:38.904Z,38.11
2019-01-24T04:44:06.946Z,38.12
2019-01-24T04:46:32.931Z,38.13
2019-01-24T04:48:58.961Z,38.15
2019-01-24T04:51:27.348Z,38.06
2019-01-24T04:53:53.403Z,38.12
2019-01-24T04:56:19.425Z,38.09
2019-01-24T04:58:45.412Z,38.15
2019-01-24T05:01:11.426Z,38.07
2019-01-24T05:03:41.561Z,38.18
2019-01-24T05:06:07.691Z,38.15
2019-01-24T05:08:33.725Z,38.16
2019-01-24T05:10:59.949Z,38.14
2019-01-24T05:13:26.913Z,38.30
2019-01-24T05:15:52.925Z,38.27
2019-01-24T05:18:18.929Z,38.21
2019-01-24T05:20:45.779Z,38.15
2019-01-24T05:23:11.774Z,38.28
2019-01-24T05:25:38.812Z,38.34
2019-01-24T05:28:04.863Z,38.25
2019-01-24T05:30:31.876Z,38.24
2019-01-24T05:32:57.899Z,38.06
2019-01-24T05:35:23.870Z,38.07
2019-01-24T05:37:50.895Z,38.05
2019-01-24T05:40:16.892Z,38.13
2019-01-24T05:42:43.900Z,38.00
2019-01-24T05:45:10.674Z,38.00
2019-01-24T05:47:37.679Z,38.04
2019-01-24T05:50:03.652Z,38.13
2019-01-24T05:52:29.681Z,38.01
2019-01-24T05:55:11.030Z,38.07
2019-01-24T05:57:37.103Z,38.07
2019-01-24T06:00:03.093Z,38.23
2019-01-24T06:02:29.077Z,38.11
2019-01-24T06:04:56.915Z,38.16
2019-01-24T06:07:29.082Z,38.18
2019-01-24T06:09:55.092Z,38.26
2019-01-24T06:12:21.488Z,38.17
2019-01-24T06:14:48.376Z,38.19
2019-01-24T06:17:16.451Z,38.22
2019-01-24T06:22:14.514Z,38.19
2019-01-24T06:24:40.516Z,38.06
2019-01-24T06:27:08.634Z,38.06
2019-01-24T06:29:35.629Z,38.13
2019-01-24T06:32:01.946Z,38.08
2019-01-24T06:34:27.964Z,37.97
2019-01-24T06:36:54.789Z,37.99
2019-01-24T06:39:20.836Z,38.11
2019-01-24T06:41:47.664Z,38.06
2019-01-24T06:44:13.690Z,37.96
2019-01-24T06:46:42.163Z,38.13
2019-01-24T06:49:09.202Z,38.11
2019-01-24T06:51:35.205Z,38.16
2019-01-24T06:54:01.330Z,38.03
2019-01-24T06:56:28.446Z,38.11
2019-01-24T06:58:55.445Z,38.20
2019-01-24T07:01:21.471Z,38.18
2019-01-24T07:03:47.455Z,38.07
2019-01-24T07:06:14.271Z,38.07
2019-01-24T07:08:40.300Z,38.09
2019-01-24T07:11:06.308Z,38.08
2019-01-24T07:13:32.666Z,38.04
2019-01-24T07:16:02.633Z,38.02
2019-01-24T07:18:28.470Z,37.79
2019-01-24T07:20:57.636Z,38.16
2019-01-24T07:23:24.734Z,38.07
2019-01-24T07:25:54.540Z,38.04
2019-01-24T07:28:22.537Z,38.14
2019-01-24T07:30:48.566Z,38.23
2019-01-24T07:33:16.916Z,38.11
2019-01-24T07:35:42.909Z,38.16
2019-01-24T07:38:08.913Z,38.21
2019-01-24T07:40:36.987Z,38.28
2019-01-24T07:43:03.347Z,38.34
2019-01-24T07:45:29.352Z,38.50
2019-01-24T07:47:55.407Z,38.58
2019-01-24T07:50:21.489Z,38.54
2019-01-24T07:55:22.857Z,38.41
2019-01-24T07:57:48.852Z,38.70
2019-01-24T08:00:14.868Z,38.65
2019-01-24T08:02:41.557Z,38.56
2019-01-24T08:05:08.686Z,38.71
2019-01-24T08:07:34.675Z,38.75
2019-01-24T08:12:45.001Z,38.75
2019-01-24T08:15:11.003Z,38.77
2019-01-24T08:17:37.029Z,38.79
2019-01-24T08:20:03.099Z,38.66
2019-01-24T08:22:29.114Z,38.76
2019-01-24T08:27:39.065Z,38.90
2019-01-24T08:30:05.148Z,38.76
2019-01-24T08:32:31.228Z,38.82
2019-01-24T08:34:57.240Z,38.90
2019-01-24T08:37:23.311Z,38.99
2019-01-24T08:39:49.309Z,38.94
2019-01-24T08:42:15.329Z,38.93
2019-01-24T08:44:42.518Z,38.99
2019-01-24T08:47:08.568Z,38.99
2019-01-24T08:49:34.552Z,38.86
2019-01-24T08:52:00.580Z,38.86
2019-01-24T08:57:10.348Z,38.91
2019-01-24T08:59:36.358Z,38.97
2019-01-24T09:02:02.399Z,38.87
2019-01-24T09:04:28.393Z,38.92
2019-01-24T09:06:54.727Z,38.99
2019-01-24T09:09:20.733Z,38.99
2019-01-24T09:14:30.537Z,38.95
2019-01-24T09:16:58.099Z,39.16
2019-01-24T09:19:24.271Z,39.08
2019-01-24T09:21:50.277Z,38.97
2019-01-24T09:24:16.289Z,38.97
2019-01-24T09:26:42.290Z,39.00
2019-01-24T09:31:40.913Z,38.92
2019-01-24T09:34:08.200Z,39.03
2019-01-24T09:36:34.217Z,39.03
2019-01-24T09:39:00.259Z,39.02
2019-01-24T09:41:26.290Z,38.88
2019-01-24T09:43:52.311Z,38.86
2019-01-24T09:46:18.288Z,38.92
2019-01-24T09:48:44.282Z,39.03
2019-01-24T09:51:10.315Z,38.91
2019-01-24T09:53:36.292Z,38.94
2019-01-24T09:56:02.283Z,39.01
2019-01-24T10:00:59.500Z,38.99
2019-01-24T10:03:25.523Z,38.97
2019-01-24T10:05:51.586Z,39.02
2019-01-24T10:08:18.800Z,39.06
2019-01-24T10:10:44.853Z,38.98
2019-01-24T10:13:11.973Z,39.00
2019-01-24T10:15:38.063Z,39.06
2019-01-24T10:18:05.103Z,39.07
2019-01-24T10:23:14.870Z,38.99
2019-01-24T10:25:41.174Z,38.97
2019-01-24T10:28:09.476Z,39.07
2019-01-24T10:30:42.220Z,38.94
2019-01-24T10:33:03.190Z,38.90
2019-01-24T10:35:29.214Z,38.97
2019-01-24T10:37:55.222Z,38.94
2019-01-24T10:40:21.277Z,38.93
2019-01-24T10:42:47.272Z,38.75
2019-01-24T10:45:13.340Z,38.81
2019-01-24T10:47:39.331Z,38.86
2019-01-24T10:50:05.370Z,38.81
2019-01-24T10:52:31.366Z,38.82
2019-01-24T10:55:13.429Z,38.91
2019-01-24T10:57:32.555Z,38.82
2019-01-24T10:59:58.568Z,38.52
2019-01-24T11:02:24.584Z,38.86
2019-01-24T11:04:50.565Z,38.87
2019-01-24T11:07:16.607Z,38.59
2019-01-24T11:09:42.946Z,38.25
2019-01-24T11:12:08.924Z,38.51
2019-01-24T11:14:34.915Z,38.14
2019-01-24T11:17:00.913Z,38.00
2019-01-24T11:19:26.926Z,37.83
2019-01-24T11:21:52.908Z,38.19
2019-01-24T11:24:18.919Z,37.89
2019-01-24T11:26:44.911Z,37.76
2019-01-24T11:29:12.028Z,37.45
2019-01-24T11:31:38.027Z,37.75
2019-01-24T11:34:04.012Z,37.66
2019-01-24T11:36:30.036Z,37.61
2019-01-24T11:38:56.005Z,37.79
2019-01-24T11:41:22.015Z,37.61
2019-01-24T11:43:48.026Z,37.62
2019-01-24T11:46:14.001Z,37.15
2019-01-24T11:48:39.999Z,36.91
2019-01-24T11:51:06.022Z,37.04
2019-01-24T11:53:32.089Z,36.93
2019-01-24T11:55:58.085Z,36.96
2019-01-24T11:58:24.221Z,37.48
2019-01-24T12:00:50.278Z,37.49
2019-01-24T12:03:16.410Z,37.20
2019-01-24T12:05:43.547Z,37.41
2019-01-24T12:08:09.988Z,37.55
2019-01-24T12:10:36.003Z,37.59
2019-01-24T12:13:02.030Z,37.49
2019-01-24T12:15:28.308Z,37.50
2019-01-24T12:17:54.386Z,37.21
2019-01-24T12:20:22.261Z,37.23
2019-01-24T12:22:48.292Z,37.23
2019-01-24T12:25:14.311Z,37.01
2019-01-24T12:27:40.640Z,37.19
2019-01-24T12:30:08.644Z,37.17
2019-01-24T12:32:34.652Z,37.31
2019-01-24T12:35:02.359Z,37.21
2019-01-24T12:37:28.338Z,36.99
2019-01-24T12:39:55.439Z,37.04
2019-01-24T12:42:21.577Z,36.78
2019-01-24T12:44:47.799Z,37.00
2019-01-24T12:47:13.819Z,37.05
2019-01-24T12:49:39.895Z,36.75
2019-01-24T12:52:06.515Z,37.00
2019-01-24T12:54:34.107Z,36.86
2019-01-24T12:57:00.687Z,36.61
2019-01-24T13:02:10.520Z,37.40
2019-01-24T13:04:38.608Z,37.42
2019-01-24T13:07:05.058Z,37.42
2019-01-24T13:09:32.943Z,37.36
2019-01-24T13:11:58.963Z,37.36
2019-01-24T13:14:25.021Z,37.46
2019-01-24T13:16:51.538Z,37.48
2019-01-24T13:19:21.600Z,37.58
2019-01-24T13:21:48.030Z,37.47
2019-01-24T13:24:14.026Z,37.43
2019-01-24T13:26:40.020Z,37.92
2019-01-24T13:29:06.066Z,37.97
2019-01-24T13:31:32.106Z,38.00
2019-01-24T13:33:58.117Z,38.10
2019-01-24T13:36:26.981Z,38.11
2019-01-24T13:38:53.013Z,38.25
2019-01-24T13:41:21.596Z,38.24
2019-01-24T13:43:47.660Z,38.35
2019-01-24T13:46:13.709Z,38.40
2019-01-24T13:48:39.826Z,38.34
2019-01-24T13:51:05.956Z,38.24
2019-01-24T13:53:32.441Z,38.13
2019-01-24T13:55:58.515Z,38.12
2019-01-24T13:58:26.729Z,38.30
2019-01-24T14:00:52.873Z,38.41
2019-01-24T14:03:19.915Z,38.23
2019-01-24T14:05:45.993Z,38.24
2019-01-24T14:08:12.084Z,38.35
2019-01-24T14:10:38.189Z,38.45
2019-01-24T14:13:04.254Z,38.39
2019-01-24T14:15:30.375Z,38.08
2019-01-24T14:17:57.890Z,37.10
2019-01-24T14:20:24.918Z,36.61
2019-01-24T14:22:51.815Z,36.41
2019-01-24T14:25:17.831Z,35.41
2019-01-24T14:27:43.825Z,36.49
2019-01-24T14:30:09.823Z,36.54
2019-01-24T14:32:36.007Z,36.64
2019-01-24T14:35:02.096Z,36.69
2019-01-24T14:37:28.416Z,36.69
2019-01-24T14:39:54.456Z,36.83
2019-01-24T14:42:21.536Z,36.90
2019-01-24T14:44:47.544Z,36.93
2019-01-24T14:47:13.589Z,38.51
2019-01-24T14:49:39.579Z,39.04
2019-01-24T14:52:05.581Z,38.75
2019-01-24T14:54:31.585Z,38.64
2019-01-24T14:56:57.571Z,39.30
2019-01-24T14:59:23.619Z,39.10
2019-01-24T15:01:49.622Z,41.02
2019-01-24T15:04:15.643Z,39.00
2019-01-24T15:06:41.731Z,38.97
2019-01-24T15:09:07.773Z,38.58
2019-01-24T15:11:33.839Z,38.64
2019-01-24T15:14:00.137Z,38.96
2019-01-24T15:16:26.163Z,39.50
2019-01-24T15:18:52.258Z,38.71
2019-01-24T15:21:18.252Z,40.87
2019-01-24T15:23:44.263Z,39.11
2019-01-24T15:26:10.245Z,39.21
2019-01-24T15:28:36.254Z,38.24
2019-01-24T15:31:02.331Z,38.01
2019-01-24T15:33:28.355Z,38.06
2019-01-24T15:35:54.358Z,37.98
2019-01-24T15:38:20.388Z,37.81
2019-01-24T15:40:46.449Z,38.03
2019-01-24T15:43:12.446Z,38.07
2019-01-24T15:45:38.423Z,37.87
2019-01-24T15:48:04.393Z,37.92
2019-01-24T15:50:30.409Z,39.72
2019-01-24T15:52:56.400Z,40.87
2019-01-24T15:55:24.589Z,39.36
2019-01-24T15:57:50.562Z,39.08
2019-01-24T16:00:16.558Z,39.40
2019-01-24T16:02:42.561Z,39.13
2019-01-24T16:05:08.572Z,39.07
2019-01-24T16:07:34.628Z,38.87
2019-01-24T16:10:00.656Z,38.84
2019-01-24T16:12:26.711Z,39.62
2019-01-24T16:14:52.791Z,39.20
2019-01-24T16:17:18.775Z,39.10
2019-01-24T16:19:44.772Z,39.17
2019-01-24T16:22:10.847Z,38.94
2019-01-24T16:24:36.901Z,39.02
2019-01-24T16:27:02.964Z,39.07
2019-01-24T16:29:29.008Z,39.05
2019-01-24T16:31:55.115Z,39.05
2019-01-24T16:34:21.154Z,39.11
2019-01-24T16:36:48.387Z,39.00
2019-01-24T16:39:14.382Z,39.32
2019-01-24T16:41:40.470Z,38.97
2019-01-24T16:44:06.508Z,38.94
2019-01-24T16:46:32.894Z,39.42
2019-01-24T16:48:59.036Z,38.93
2019-01-24T16:51:25.050Z,39.13
2019-01-24T16:53:51.082Z,39.11
2019-01-24T16:56:17.116Z,39.07
2019-01-24T16:58:43.133Z,39.20
2019-01-24T17:01:09.106Z,39.08
2019-01-24T17:03:35.117Z,39.15
2019-01-24T17:06:01.153Z,39.16
2019-01-24T17:08:27.137Z,39.06
2019-01-24T17:10:53.185Z,39.12
2019-01-24T17:13:19.167Z,39.08
2019-01-24T17:15:45.170Z,39.00
2019-01-24T17:18:11.164Z,39.04
2019-01-24T17:20:37.163Z,39.23
2019-01-24T17:23:03.180Z,39.21
2019-01-24T17:25:29.227Z,39.22
2019-01-24T17:27:55.232Z,39.26
2019-01-24T17:30:21.221Z,39.27
2019-01-24T17:32:47.263Z,39.20
2019-01-24T17:35:13.271Z,39.18
2019-01-24T17:37:39.396Z,39.35
2019-01-24T17:40:05.422Z,39.23
2019-01-24T17:42:31.439Z,39.31
2019-01-24T17:44:57.471Z,39.16
2019-01-24T17:47:23.505Z,39.31
2019-01-24T17:49:49.726Z,39.36
2019-01-24T17:52:15.719Z,39.43
2019-01-24T17:54:41.716Z,39.43
2019-01-24T17:57:07.707Z,39.37
2019-01-24T17:59:33.709Z,39.29
2019-01-24T18:01:59.734Z,39.32
2019-01-24T18:04:25.728Z,39.26
2019-01-24T18:06:51.731Z,39.37
2019-01-24T18:09:17.753Z,39.15
2019-01-24T18:11:43.779Z,39.29
2019-01-24T18:14:09.776Z,39.31
2019-01-24T18:16:35.820Z,39.28
2019-01-24T18:19:01.856Z,39.30
2019-01-24T18:21:27.904Z,39.28
2019-01-24T18:23:53.988Z,39.31
2019-01-24T18:26:20.669Z,39.39
2019-01-24T18:28:46.786Z,39.33
2019-01-24T18:31:12.794Z,39.40
2019-01-24T18:33:38.870Z,39.42
2019-01-24T18:36:04.982Z,39.32
2019-01-24T18:38:38.435Z,39.32
2019-01-24T18:41:08.358Z,39.36
2019-01-24T18:43:30.485Z,39.47
2019-01-24T18:45:57.547Z,39.39
2019-01-24T18:48:23.977Z,39.38
2019-01-24T18:50:50.123Z,39.39
2019-01-24T18:53:16.138Z,39.40
2019-01-24T18:55:42.174Z,39.33
2019-01-24T18:58:08.167Z,39.33
2019-01-24T19:00:34.182Z,39.32
2019-01-24T19:03:00.278Z,39.39
2019-01-24T19:05:26.329Z,39.37
2019-01-24T19:07:52.621Z,39.46
2019-01-24T19:10:19.002Z,39.37
2019-01-24T19:12:45.032Z,39.49
2019-01-24T19:15:12.214Z,39.49
2019-01-24T19:17:38.371Z,39.46
2019-01-24T19:20:04.632Z,39.49
2019-01-24T19:22:30.722Z,39.50
2019-01-24T19:24:57.801Z,39.49
2019-01-24T19:27:23.816Z,39.45
2019-01-24T19:29:49.869Z,39.48
2019-01-24T19:32:15.857Z,39.36
2019-01-24T19:34:42.633Z,39.34
2019-01-24T19:37:10.246Z,39.34
2019-01-24T19:39:36.469Z,39.28
2019-01-24T19:42:02.793Z,39.34
2019-01-24T19:44:28.829Z,39.33
2019-01-24T19:46:54.933Z,39.21
2019-01-24T19:49:21.463Z,39.27
2019-01-24T19:51:47.521Z,39.30
2019-01-24T19:54:13.532Z,39.50
2019-01-24T19:56:39.525Z,39.47
2019-01-24T19:59:06.010Z,39.43
2019-01-24T20:01:32.092Z,39.44
2019-01-24T20:03:58.111Z,39.39
2019-01-24T20:06:24.117Z,39.43
2019-01-24T20:08:50.169Z,39.44
2019-01-24T20:11:16.180Z,39.44
2019-01-24T20:13:42.922Z,39.45
2019-01-24T20:16:09.056Z,39.46
2019-01-24T20:18:35.101Z,39.49
2019-01-24T20:21:01.241Z,39.45
2019-01-24T20:23:27.811Z,39.51
2019-01-24T20:25:53.845Z,39.50
2019-01-24T20:28:19.856Z,39.54
2019-01-24T20:30:45.873Z,39.61
2019-01-24T20:33:11.892Z,39.55
2019-01-24T20:35:38.331Z,39.65
2019-01-24T20:38:04.376Z,39.69
2019-01-24T20:40:30.462Z,39.64
2019-01-24T20:42:56.444Z,40.63
2019-01-24T20:45:22.494Z,40.06
2019-01-24T20:47:49.508Z,39.92
2019-01-24T20:50:15.494Z,39.69
2019-01-24T20:52:41.486Z,39.76
2019-01-24T20:55:07.516Z,39.73
2019-01-24T20:57:34.128Z,39.81
2019-01-24T21:00:00.319Z,39.83
2019-01-24T21:02:26.587Z,39.79
2019-01-24T21:04:53.009Z,39.75
2019-01-24T21:07:19.000Z,39.77
2019-01-24T21:09:45.309Z,39.82
2019-01-24T21:12:11.389Z,39.85
2019-01-24T21:14:40.228Z,39.82
2019-01-24T21:17:06.403Z,39.76
2019-01-24T21:19:33.104Z,39.78
2019-01-24T21:21:59.153Z,39.80
2019-01-24T21:24:26.203Z,39.83
2019-01-24T21:26:52.352Z,39.80
2019-01-24T21:29:18.362Z,39.92
2019-01-24T21:31:44.361Z,39.92
2019-01-24T21:34:10.372Z,39.93
2019-01-24T21:36:36.386Z,39.98
2019-01-24T21:39:02.401Z,40.01
2019-01-24T21:41:28.391Z,40.10
2019-01-24T21:43:54.390Z,40.17
2019-01-24T21:46:20.485Z,40.19
2019-01-24T21:48:46.487Z,40.26
2019-01-24T21:51:12.495Z,40.39
2019-01-24T21:53:38.492Z,40.46
2019-01-24T21:56:04.654Z,40.50
2019-01-24T21:58:30.683Z,41.90
2019-01-24T22:00:56.690Z,40.72
2019-01-24T22:03:23.752Z,40.57
2019-01-24T22:05:49.817Z,41.01
2019-01-24T22:08:15.881Z,40.55
2019-01-24T22:10:41.916Z,40.49
2019-01-24T22:13:07.933Z,40.38
2019-01-24T22:15:33.943Z,40.35
2019-01-24T22:17:59.948Z,40.34
2019-01-24T22:20:25.966Z,40.34
2019-01-24T22:22:52.083Z,40.59
2019-01-24T22:25:18.086Z,40.98
2019-01-24T22:27:44.542Z,40.24
2019-01-24T22:30:10.585Z,40.32
2019-01-24T22:32:37.023Z,40.17
2019-01-24T22:35:03.227Z,40.18
2019-01-24T22:37:29.346Z,40.22
2019-01-24T22:39:55.477Z,40.09
2019-01-24T22:42:21.487Z,40.08
2019-01-24T22:44:47.489Z,40.21
2019-01-24T22:47:13.522Z,40.07
2019-01-24T22:49:39.546Z,40.10
2019-01-24T22:52:05.588Z,39.98
2019-01-24T22:54:31.613Z,39.92
2019-01-24T22:56:57.608Z,39.94
2019-01-24T22:59:23.636Z,39.88
2019-01-24T23:01:49.698Z,39.55
2019-01-24T23:04:15.707Z,39.42
2019-01-24T23:06:41.811Z,39.88
2019-01-24T23:09:07.928Z,39.98
2019-01-24T23:11:34.200Z,40.16
2019-01-24T23:14:02.240Z,39.75
2019-01-24T23:16:31.243Z,39.74
2019-01-24T23:18:57.259Z,39.64
2019-01-24T23:21:23.247Z,39.66
2019-01-24T23:23:49.809Z,39.84
2019-01-24T23:26:15.997Z,39.75
2019-01-24T23:28:41.974Z,39.56
2019-01-24T23:31:07.956Z,39.48
2019-01-24T23:33:33.976Z,39.40
2019-01-24T23:36:00.087Z,39.57
2019-01-24T23:38:26.069Z,39.32
2019-01-24T23:40:52.083Z,39.29
2019-01-24T23:43:18.092Z,39.21
2019-01-24T23:45:44.084Z,39.24
2019-01-24T23:48:10.099Z,39.31
2019-01-24T23:50:36.087Z,39.24
2019-01-24T23:53:02.083Z,39.35
2019-01-24T23:55:28.145Z,39.39
2019-01-24T23:57:54.116Z,39.45
